createdAt,value
2023-01-28T00:00:08.328Z,108.38
2023-01-28T00:01:08.313Z,109.37
2023-01-28T00:02:08.272Z,106.82
2023-01-28T00:03:08.263Z,106.93
2023-01-28T00:04:08.319Z,108.81
2023-01-28T00:05:08.276Z,107.89
2023-01-28T00:06:08.233Z,110.19
2023-01-28T00:07:08.248Z,109.05
2023-01-28T00:08:08.198Z,110.77
2023-01-28T00:09:08.221Z,109.29
2023-01-28T00:10:08.200Z,110.57
2023-01-28T00:11:08.202Z,108.65
2023-01-28T00:12:08.253Z,109.69
2023-01-28T00:13:08.293Z,110.08
2023-01-28T00:14:08.294Z,108.34
2023-01-28T00:15:08.349Z,109.20
2023-01-28T00:16:08.424Z,110.90
2023-01-28T00:17:08.413Z,107.29
2023-01-28T00:18:08.413Z,108.77
2023-01-28T00:19:08.433Z,105.67
2023-01-28T00:20:08.511Z,108.05
2023-01-28T00:21:08.498Z,107.19
2023-01-28T00:22:08.544Z,107.48
2023-01-28T00:23:08.551Z,108.77
2023-01-28T00:24:08.637Z,108.99
2023-01-28T00:25:08.603Z,106.54
2023-01-28T00:26:08.658Z,109.45
2023-01-28T00:27:08.637Z,107.96
2023-01-28T00:28:08.722Z,106.82
2023-01-28T00:29:08.741Z,106.77
2023-01-28T00:30:08.769Z,107.31
2023-01-28T00:31:08.777Z,107.22
2023-01-28T00:32:08.908Z,106.20
2023-01-28T00:33:08.856Z,105.60
2023-01-28T00:34:08.862Z,105.94
2023-01-28T00:35:08.873Z,104.88
2023-01-28T00:36:08.923Z,105.93
2023-01-28T00:37:08.938Z,107.77
2023-01-28T00:38:08.959Z,104.77
2023-01-28T00:39:09.014Z,105.95
2023-01-28T00:40:09.088Z,106.51
2023-01-28T00:41:09.102Z,105.17
2023-01-28T00:42:09.115Z,105.14
2023-01-28T00:43:09.175Z,105.89
2023-01-28T00:44:09.195Z,106.69
2023-01-28T00:45:09.210Z,103.45
2023-01-28T00:46:09.347Z,104.24
2023-01-28T00:47:09.492Z,109.37
2023-01-28T00:48:09.285Z,105.70
2023-01-28T00:49:09.346Z,106.55
2023-01-28T00:50:09.428Z,106.44
2023-01-28T00:51:09.397Z,105.48
2023-01-28T00:52:09.475Z,105.61
2023-01-28T00:53:09.477Z,104.99
2023-01-28T00:54:09.520Z,103.55
2023-01-28T00:55:09.560Z,104.75
2023-01-28T00:56:09.557Z,104.23
2023-01-28T00:57:09.614Z,102.70
2023-01-28T00:58:09.612Z,106.26
2023-01-28T00:59:10.650Z,106.96
2023-01-28T01:00:09.670Z,104.66
2023-01-28T01:01:09.699Z,104.05
2023-01-28T01:02:09.787Z,105.12
2023-01-28T01:03:09.692Z,102.12
2023-01-28T01:04:09.667Z,105.99
2023-01-28T01:05:09.709Z,104.75
2023-01-28T01:06:09.683Z,104.70
2023-01-28T01:07:09.738Z,106.50
2023-01-28T01:08:09.704Z,106.26
2023-01-28T01:09:09.701Z,106.00
2023-01-28T01:10:09.716Z,107.47
2023-01-28T01:11:09.724Z,105.09
2023-01-28T01:12:09.683Z,103.07
2023-01-28T01:13:09.727Z,105.20
2023-01-28T01:14:09.743Z,103.49
2023-01-28T01:15:09.744Z,107.15
2023-01-28T01:16:09.742Z,105.80
2023-01-28T01:17:09.764Z,104.19
2023-01-28T01:18:09.741Z,103.68
2023-01-28T01:19:09.744Z,105.91
2023-01-28T01:20:09.786Z,107.48
2023-01-28T01:21:09.753Z,103.30
2023-01-28T01:22:09.760Z,104.35
2023-01-28T01:23:09.808Z,105.34
2023-01-28T01:24:09.859Z,104.77
2023-01-28T01:25:09.863Z,105.01
2023-01-28T01:26:09.877Z,104.71
2023-01-28T01:27:09.940Z,103.49
2023-01-28T01:28:09.963Z,106.23
2023-01-28T01:29:09.996Z,102.72
2023-01-28T01:30:10.001Z,102.94
2023-01-28T01:31:10.085Z,103.42
2023-01-28T01:32:10.105Z,103.93
2023-01-28T01:33:10.116Z,105.19
2023-01-28T01:34:10.190Z,101.27
2023-01-28T01:35:10.192Z,105.12
2023-01-28T01:36:10.234Z,103.54
2023-01-28T01:37:10.224Z,103.01
2023-01-28T01:38:10.293Z,103.59
2023-01-28T01:39:10.279Z,104.05
2023-01-28T01:40:10.345Z,103.69
2023-01-28T01:41:10.360Z,102.81
2023-01-28T01:42:10.439Z,104.81
2023-01-28T01:43:10.448Z,103.21
2023-01-28T01:44:10.467Z,104.51
2023-01-28T01:45:10.525Z,102.68
2023-01-28T01:46:10.557Z,100.87
2023-01-28T01:47:10.595Z,102.71
2023-01-28T01:48:10.637Z,104.13
2023-01-28T01:49:10.632Z,104.23
2023-01-28T01:50:11.016Z,103.55
2023-01-28T01:51:10.669Z,100.03
2023-01-28T01:52:10.748Z,101.42
2023-01-28T01:53:10.770Z,104.34
2023-01-28T01:54:10.835Z,103.23
2023-01-28T01:55:10.840Z,100.90
2023-01-28T01:56:10.886Z,103.78
2023-01-28T01:57:10.878Z,104.65
2023-01-28T01:58:11.514Z,101.47
2023-01-28T01:59:10.995Z,101.03
2023-01-28T02:00:11.020Z,101.46
2023-01-28T02:01:11.020Z,101.79
2023-01-28T02:02:11.139Z,102.19
2023-01-28T02:03:11.184Z,102.64
2023-01-28T02:04:11.205Z,103.02
2023-01-28T02:05:11.222Z,103.02
2023-01-28T02:06:11.203Z,103.23
2023-01-28T02:07:11.408Z,103.35
2023-01-28T02:08:11.273Z,101.88
2023-01-28T02:09:11.278Z,101.38
2023-01-28T02:10:11.272Z,100.21
2023-01-28T02:11:11.276Z,102.55
2023-01-28T02:12:11.314Z,102.39
2023-01-28T02:13:11.263Z,103.04
2023-01-28T02:14:14.538Z,100.32
2023-01-28T02:15:12.578Z,100.54
2023-01-28T02:16:11.279Z,100.73
2023-01-28T02:17:11.263Z,101.62
2023-01-28T02:18:11.241Z,101.59
2023-01-28T02:19:11.245Z,100.93
2023-01-28T02:20:11.222Z,104.26
2023-01-28T02:21:11.262Z,100.87
2023-01-28T02:22:11.225Z,100.22
2023-01-28T02:23:11.232Z,99.59
2023-01-28T02:24:11.258Z,100.48
2023-01-28T02:25:11.240Z,101.06
2023-01-28T02:26:11.174Z,101.80
2023-01-28T02:27:11.195Z,100.40
2023-01-28T02:28:11.214Z,100.93
2023-01-28T02:29:11.259Z,103.66
2023-01-28T02:30:11.301Z,99.93
2023-01-28T02:31:11.460Z,103.60
2023-01-28T02:32:11.395Z,98.62
2023-01-28T02:33:11.399Z,100.49
2023-01-28T02:34:11.454Z,102.52
2023-01-28T02:35:11.602Z,102.71
2023-01-28T02:36:11.526Z,102.17
2023-01-28T02:37:11.556Z,102.90
2023-01-28T02:38:11.596Z,101.12
2023-01-28T02:39:11.673Z,98.43
2023-01-28T02:40:11.683Z,99.34
2023-01-28T02:41:11.713Z,102.25
2023-01-28T02:42:11.718Z,101.21
2023-01-28T02:43:11.779Z,99.11
2023-01-28T02:44:11.897Z,102.20
2023-01-28T02:45:12.151Z,101.23
2023-01-28T02:46:11.925Z,100.50
2023-01-28T02:47:11.915Z,100.80
2023-01-28T02:48:11.961Z,99.37
2023-01-28T02:49:11.993Z,101.01
2023-01-28T02:50:12.021Z,98.03
2023-01-28T02:51:12.079Z,98.83
2023-01-28T02:52:12.066Z,100.73
2023-01-28T02:53:12.122Z,100.67
2023-01-28T02:54:12.151Z,96.97
2023-01-28T02:55:12.436Z,100.22
2023-01-28T02:56:12.244Z,101.33
2023-01-28T02:57:12.241Z,97.35
2023-01-28T02:58:12.277Z,98.33
2023-01-28T02:59:12.333Z,97.85
2023-01-28T03:00:12.343Z,99.58
2023-01-28T03:01:12.364Z,97.67
2023-01-28T03:02:12.365Z,99.35
2023-01-28T03:03:12.422Z,99.51
2023-01-28T03:04:12.423Z,100.97
2023-01-28T03:05:12.479Z,99.43
2023-01-28T03:06:12.500Z,99.30
2023-01-28T03:07:12.550Z,98.10
2023-01-28T03:08:12.557Z,96.21
2023-01-28T03:09:12.605Z,98.25
2023-01-28T03:10:13.601Z,99.65
2023-01-28T03:11:12.782Z,98.38
2023-01-28T03:12:12.799Z,99.31
2023-01-28T03:13:12.777Z,100.47
2023-01-28T03:14:12.767Z,97.17
2023-01-28T03:15:13.217Z,98.57
2023-01-28T03:16:12.826Z,97.40
2023-01-28T03:17:12.803Z,97.90
2023-01-28T03:18:12.797Z,100.16
2023-01-28T03:19:12.843Z,97.88
2023-01-28T03:20:12.791Z,98.73
2023-01-28T03:21:12.842Z,98.54
2023-01-28T03:22:12.866Z,96.80
2023-01-28T03:23:12.884Z,98.18
2023-01-28T03:24:12.900Z,97.44
2023-01-28T03:25:13.109Z,94.85
2023-01-28T03:26:12.887Z,97.69
2023-01-28T03:27:12.899Z,98.79
2023-01-28T03:28:12.949Z,96.42
2023-01-28T03:34:12.978Z,94.70
2023-01-28T03:35:13.536Z,94.73
2023-01-28T03:36:13.011Z,96.24
2023-01-28T03:37:13.090Z,94.11
2023-01-28T03:38:13.095Z,96.28
2023-01-28T03:39:13.179Z,93.56
2023-01-28T03:40:13.187Z,94.81
2023-01-28T03:42:13.255Z,95.07
2023-01-28T03:43:13.306Z,94.47
2023-01-28T03:44:13.306Z,90.57
2023-01-28T03:45:13.594Z,96.82
2023-01-28T03:46:13.447Z,97.92
2023-01-28T03:47:13.338Z,95.59
2023-01-28T03:48:13.341Z,98.06
2023-01-28T03:49:13.328Z,96.18
2023-01-28T03:50:13.354Z,94.13
2023-01-28T03:51:13.363Z,92.29
2023-01-28T03:52:13.414Z,94.73
2023-01-28T03:53:16.352Z,93.35
2023-01-28T03:54:13.358Z,98.46
2023-01-28T03:55:14.300Z,94.05
2023-01-28T03:56:13.338Z,93.67
2023-01-28T03:57:13.337Z,97.04
2023-01-28T03:58:13.352Z,96.17
2023-01-28T03:59:13.357Z,94.27
2023-01-28T04:00:13.334Z,95.32
2023-01-28T04:01:13.324Z,91.50
2023-01-28T04:02:13.308Z,94.06
2023-01-28T04:03:13.362Z,93.40
2023-01-28T04:04:13.304Z,90.62
2023-01-28T04:05:13.630Z,90.51
2023-01-28T04:06:13.301Z,91.29
2023-01-28T04:07:13.267Z,93.51
2023-01-28T04:08:13.278Z,93.79
2023-01-28T04:09:13.260Z,88.65
2023-01-28T04:10:13.266Z,94.04
2023-01-28T04:11:13.344Z,92.73
2023-01-28T04:12:13.226Z,90.48
2023-01-28T04:13:13.638Z,94.03
2023-01-28T04:14:13.240Z,92.29
2023-01-28T04:15:13.455Z,92.68
2023-01-28T04:16:13.195Z,88.69
2023-01-28T04:17:13.214Z,91.54
2023-01-28T04:18:13.199Z,91.12
2023-01-28T04:19:13.165Z,92.58
2023-01-28T04:20:13.212Z,89.45
2023-01-28T04:21:13.175Z,92.12
2023-01-28T04:22:13.164Z,90.07
2023-01-28T04:23:13.146Z,91.52
2023-01-28T04:24:13.189Z,87.58
2023-01-28T04:25:13.617Z,89.36
2023-01-28T04:26:13.133Z,88.46
2023-01-28T04:27:13.145Z,91.48
2023-01-28T04:28:13.113Z,91.81
2023-01-28T04:29:13.105Z,90.51
2023-01-28T04:30:13.122Z,89.29
2023-01-28T04:31:13.120Z,88.91
2023-01-28T04:32:13.060Z,89.85
2023-01-28T04:33:13.058Z,90.65
2023-01-28T04:34:13.083Z,90.63
2023-01-28T04:35:13.419Z,89.80
2023-01-28T04:36:13.069Z,88.74
2023-01-28T04:37:13.014Z,88.43
2023-01-28T04:38:13.086Z,89.01
2023-01-28T04:39:13.114Z,91.53
2023-01-28T04:40:13.160Z,90.70
2023-01-28T04:41:13.187Z,91.66
2023-01-28T04:42:13.230Z,88.66
2023-01-28T04:43:13.290Z,91.34
2023-01-28T04:44:13.291Z,91.49
2023-01-28T04:45:13.577Z,88.96
2023-01-28T04:46:13.403Z,89.39
2023-01-28T04:47:13.436Z,89.25
2023-01-28T04:48:13.574Z,89.00
2023-01-28T04:49:13.495Z,87.49
2023-01-28T04:50:13.556Z,86.97
2023-01-28T04:51:13.586Z,87.39
2023-01-28T04:52:13.610Z,88.19
2023-01-28T04:53:13.656Z,86.98
2023-01-28T04:54:13.702Z,87.89
2023-01-28T04:55:14.067Z,88.63
2023-01-28T04:56:13.748Z,88.67
2023-01-28T04:57:13.821Z,86.32
2023-01-28T04:58:13.901Z,87.88
2023-01-28T04:59:13.891Z,86.96
2023-01-28T05:00:13.923Z,88.24
2023-01-28T05:01:14.001Z,88.42
2023-01-28T05:02:14.021Z,87.70
2023-01-28T05:03:14.066Z,86.14
2023-01-28T05:04:14.085Z,87.82
2023-01-28T05:05:14.312Z,87.60
2023-01-28T05:06:14.127Z,88.02
2023-01-28T05:07:14.179Z,89.97
2023-01-28T05:08:14.216Z,87.89
2023-01-28T05:09:14.229Z,89.60
2023-01-28T05:10:14.301Z,88.72
2023-01-28T05:12:14.344Z,88.24
2023-01-28T05:13:14.423Z,87.89
2023-01-28T05:14:14.453Z,88.89
2023-01-28T05:15:14.889Z,88.12
2023-01-28T05:16:14.532Z,90.28
2023-01-28T05:17:14.581Z,88.79
2023-01-28T05:18:14.577Z,88.03
2023-01-28T05:19:14.607Z,87.13
2023-01-28T05:20:14.694Z,87.77
2023-01-28T05:36:15.332Z,87.50
2023-01-28T05:37:15.349Z,87.38
2023-01-28T05:38:15.783Z,87.72
2023-01-28T05:39:15.396Z,85.88
2023-01-28T05:40:15.877Z,84.45
2023-01-28T05:41:15.408Z,83.79
2023-01-28T05:42:15.397Z,87.63
2023-01-28T05:43:15.463Z,84.00
2023-01-28T05:44:15.434Z,84.75
2023-01-28T05:45:15.688Z,86.99
2023-01-28T05:46:15.455Z,87.00
2023-01-28T05:47:15.492Z,85.29
2023-01-28T05:48:15.500Z,85.48
2023-01-28T05:49:15.582Z,89.05
2023-01-28T05:50:16.044Z,86.49
2023-01-28T05:51:15.655Z,85.45
2023-01-28T05:52:15.703Z,85.55
2023-01-28T05:53:15.695Z,84.33
2023-01-28T05:54:15.708Z,85.29
2023-01-28T05:55:15.721Z,81.77
2023-01-28T05:56:15.722Z,84.73
2023-01-28T05:57:15.737Z,83.23
2023-01-28T05:58:15.736Z,87.13
2023-01-28T05:59:15.752Z,84.99
2023-01-28T06:00:16.168Z,87.53
2023-01-28T06:01:15.858Z,84.48
2023-01-28T06:02:15.839Z,81.09
2023-01-28T06:03:15.854Z,83.89
2023-01-28T06:04:15.921Z,84.54
2023-01-28T06:05:15.993Z,87.37
2023-01-28T06:06:15.998Z,83.84
2023-01-28T06:07:15.985Z,82.75
2023-01-28T06:08:16.003Z,81.66
2023-01-28T06:09:16.012Z,81.98
2023-01-28T06:10:16.314Z,81.13
2023-01-28T06:11:16.478Z,82.34
2023-01-28T06:12:16.065Z,82.35
2023-01-28T06:13:16.051Z,83.64
2023-01-28T06:14:16.051Z,84.04
2023-01-28T06:15:16.101Z,82.63
2023-01-28T06:16:16.275Z,84.96
2023-01-28T06:17:16.156Z,81.51
2023-01-28T06:18:16.217Z,82.00
2023-01-28T06:19:16.253Z,80.20
2023-01-28T06:20:16.651Z,82.43
2023-01-28T06:21:16.342Z,82.48
2023-01-28T06:22:16.475Z,87.56
2023-01-28T06:23:16.454Z,81.07
2023-01-28T06:24:16.501Z,81.30
2023-01-28T06:25:16.486Z,79.52
2023-01-28T06:26:16.540Z,79.94
2023-01-28T06:27:16.575Z,83.99
2023-01-28T06:28:16.646Z,81.86
2023-01-28T06:29:16.667Z,78.08
2023-01-28T06:30:17.001Z,81.90
2023-01-28T06:31:16.743Z,81.23
2023-01-28T06:32:16.852Z,81.29
2023-01-28T06:33:16.838Z,81.13
2023-01-28T06:34:16.889Z,80.89
2023-01-28T06:35:16.940Z,81.15
2023-01-28T06:36:16.974Z,79.12
2023-01-28T06:37:17.014Z,81.75
2023-01-28T06:38:17.070Z,80.03
2023-01-28T06:39:17.203Z,80.03
2023-01-28T06:40:17.504Z,80.22
2023-01-28T06:41:17.182Z,79.68
2023-01-28T06:42:17.257Z,80.10
2023-01-28T06:43:17.200Z,82.32
2023-01-28T06:44:17.268Z,81.10
2023-01-28T06:45:17.323Z,82.02
2023-01-28T06:46:17.393Z,79.97
2023-01-28T06:47:17.388Z,80.17
2023-01-28T06:48:17.440Z,81.51
2023-01-28T06:49:17.476Z,81.68
2023-01-28T06:50:17.855Z,79.93
2023-01-28T06:51:17.512Z,82.11
2023-01-28T06:52:17.564Z,79.77
2023-01-28T06:53:17.565Z,80.18
2023-01-28T06:54:17.598Z,82.29
2023-01-28T06:55:17.580Z,74.77
2023-01-28T06:56:17.556Z,79.94
2023-01-28T06:57:17.600Z,80.78
2023-01-28T06:58:17.610Z,81.29
2023-01-28T06:59:17.576Z,79.69
2023-01-28T07:00:18.058Z,80.67
2023-01-28T07:01:17.621Z,79.95
2023-01-28T07:02:17.649Z,79.43
2023-01-28T07:03:17.703Z,80.63
2023-01-28T07:04:17.642Z,81.52
2023-01-28T07:05:17.640Z,81.26
2023-01-28T07:06:17.651Z,78.40
2023-01-28T07:07:17.677Z,79.50
2023-01-28T07:08:17.690Z,79.63
2023-01-28T07:09:17.687Z,81.76
2023-01-28T07:10:17.995Z,81.51
2023-01-28T07:11:17.700Z,79.40
2023-01-28T07:12:17.716Z,79.36
2023-01-28T07:13:17.735Z,79.19
2023-01-28T07:14:17.724Z,78.77
2023-01-28T07:15:17.746Z,78.78
2023-01-28T07:16:17.774Z,79.86
2023-01-28T07:17:17.782Z,77.69
2023-01-28T07:18:17.757Z,77.49
2023-01-28T07:19:17.776Z,79.06
2023-01-28T07:20:18.194Z,82.69
2023-01-28T07:21:17.781Z,79.12
2023-01-28T07:22:17.771Z,78.93
2023-01-28T07:23:17.818Z,78.41
2023-01-28T07:24:17.931Z,76.81
2023-01-28T07:25:17.854Z,78.11
2023-01-28T07:26:17.850Z,77.55
2023-01-28T07:27:17.877Z,74.23
2023-01-28T07:28:17.897Z,78.37
2023-01-28T07:29:17.930Z,77.83
2023-01-28T07:30:18.287Z,78.70
2023-01-28T07:31:18.048Z,72.94
2023-01-28T07:32:17.941Z,71.08
2023-01-28T07:33:17.974Z,65.19
2023-01-28T07:34:18.016Z,63.81
2023-01-28T07:35:18.016Z,69.39
2023-01-28T07:36:17.988Z,63.38
2023-01-28T07:37:17.997Z,63.60
2023-01-28T07:38:17.995Z,67.61
2023-01-28T07:39:18.038Z,70.26
2023-01-28T07:40:18.050Z,73.56
2023-01-28T07:41:18.058Z,70.14
2023-01-28T07:42:18.061Z,71.02
2023-01-28T07:43:18.064Z,73.27
2023-01-28T07:44:18.074Z,76.07
2023-01-28T07:45:18.087Z,74.84
2023-01-28T07:46:18.106Z,74.84
2023-01-28T07:47:18.134Z,75.03
2023-01-28T07:48:18.122Z,73.08
2023-01-28T07:49:18.132Z,75.18
2023-01-28T07:50:18.193Z,75.21
2023-01-28T07:51:18.233Z,72.20
2023-01-28T07:52:18.263Z,75.19
2023-01-28T07:53:18.303Z,74.95
2023-01-28T07:54:18.342Z,75.10
2023-01-28T07:55:18.416Z,73.97
2023-01-28T07:56:18.443Z,73.90
2023-01-28T07:57:18.465Z,73.45
2023-01-28T07:58:18.510Z,74.55
2023-01-28T07:59:18.512Z,76.46
2023-01-28T08:00:18.533Z,73.40
2023-01-28T08:01:18.584Z,76.27
2023-01-28T08:02:18.532Z,71.74
2023-01-28T08:03:18.593Z,75.70
2023-01-28T08:04:18.632Z,70.06
2023-01-28T08:05:18.651Z,74.62
2023-01-28T08:06:18.592Z,75.61
2023-01-28T08:07:18.568Z,72.02
2023-01-28T08:08:18.610Z,74.35
2023-01-28T08:09:18.574Z,70.47
2023-01-28T08:10:18.594Z,68.42
2023-01-28T08:11:18.578Z,74.14
2023-01-28T08:12:18.604Z,68.50
2023-01-28T08:13:18.656Z,72.28
2023-01-28T08:14:18.616Z,73.14
2023-01-28T08:15:18.627Z,74.38
2023-01-28T08:16:18.652Z,73.61
2023-01-28T08:17:18.649Z,74.45
2023-01-28T08:18:18.660Z,71.93
2023-01-28T08:19:18.642Z,75.19
2023-01-28T08:20:18.692Z,73.13
2023-01-28T08:21:18.697Z,75.28
2023-01-28T08:22:18.664Z,74.18
2023-01-28T08:23:18.713Z,72.76
2023-01-28T08:24:18.751Z,75.89
2023-01-28T08:25:18.732Z,73.13
2023-01-28T08:26:18.777Z,73.12
2023-01-28T08:27:18.762Z,70.65
2023-01-28T08:28:18.833Z,74.32
2023-01-28T08:29:18.857Z,72.30
2023-01-28T08:30:18.905Z,70.87
2023-01-28T08:31:19.037Z,74.32
2023-01-28T08:32:18.984Z,72.91
2023-01-28T08:33:19.019Z,71.01
2023-01-28T08:34:19.049Z,75.80
2023-01-28T08:35:19.100Z,73.25
2023-01-28T08:36:19.078Z,73.46
2023-01-28T08:37:19.065Z,74.61
2023-01-28T08:38:19.094Z,71.13
2023-01-28T08:39:19.074Z,69.60
2023-01-28T08:40:19.102Z,71.58
2023-01-28T08:41:19.101Z,72.13
2023-01-28T08:42:19.110Z,72.06
2023-01-28T08:43:19.134Z,72.69
2023-01-28T08:44:19.095Z,70.85
2023-01-28T08:45:19.114Z,68.76
2023-01-28T08:46:19.218Z,72.14
2023-01-28T08:47:19.125Z,74.19
2023-01-28T08:48:19.146Z,72.22
2023-01-28T08:50:19.170Z,71.70
2023-01-28T08:51:19.186Z,72.71
2023-01-28T08:52:19.154Z,72.09
2023-01-28T08:53:19.178Z,70.76
2023-01-28T08:54:19.191Z,70.76
2023-01-28T08:55:19.243Z,71.69
2023-01-28T08:56:19.221Z,70.46
2023-01-28T08:57:19.277Z,72.29
2023-01-28T08:58:19.243Z,71.67
2023-01-28T09:00:19.283Z,75.46
2023-01-28T09:01:19.314Z,72.88
2023-01-28T09:02:31.086Z,73.33
2023-01-28T09:03:20.292Z,73.48
2023-01-28T16:44:25.336Z,50.62
2023-01-28T16:45:25.386Z,47.83
2023-01-28T16:46:25.454Z,51.97
2023-01-28T16:47:25.478Z,49.50
2023-01-28T16:48:25.525Z,46.43
2023-01-28T16:49:25.599Z,47.89
2023-01-28T16:50:25.649Z,46.74
2023-01-28T16:51:25.752Z,47.83
2023-01-28T16:52:25.768Z,50.52
2023-01-28T16:53:28.361Z,51.49
2023-01-28T16:54:25.808Z,51.40
2023-01-28T16:55:25.791Z,47.88
2023-01-28T16:56:43.978Z,49.54
2023-01-28T16:57:26.754Z,49.84
2023-01-28T16:58:25.783Z,50.04
2023-01-28T16:59:25.720Z,49.60
2023-01-28T17:00:25.761Z,50.06
2023-01-28T17:01:25.719Z,45.27
2023-01-28T17:02:25.739Z,47.78
2023-01-28T17:03:25.830Z,49.31
2023-01-28T17:04:25.704Z,47.75
2023-01-28T17:05:25.715Z,47.28
2023-01-28T17:06:25.672Z,47.07
2023-01-28T17:07:25.700Z,47.46
2023-01-28T17:08:25.669Z,46.16
2023-01-28T17:09:25.670Z,49.69
2023-01-28T17:10:25.686Z,46.70
2023-01-28T17:11:25.695Z,49.17
2023-01-28T17:12:25.664Z,48.78
2023-01-28T17:13:25.662Z,52.52
2023-01-28T17:14:25.716Z,49.23
2023-01-28T17:15:25.754Z,49.51
2023-01-28T17:16:25.901Z,47.58
2023-01-28T17:17:25.859Z,48.21
2023-01-28T17:18:25.823Z,45.33
2023-01-28T17:19:25.860Z,47.49
2023-01-28T17:20:25.877Z,50.38
2023-01-28T17:21:25.889Z,49.56
2023-01-28T17:22:25.852Z,48.51
2023-01-28T17:23:25.873Z,47.18
2023-01-28T17:24:25.894Z,46.39
2023-01-28T17:25:25.867Z,50.01
2023-01-28T17:26:25.898Z,44.86
2023-01-28T17:27:25.925Z,48.04
2023-01-28T17:28:25.902Z,47.31
2023-01-28T17:29:25.908Z,46.28
2023-01-28T17:30:25.915Z,46.94
2023-01-28T17:31:26.002Z,50.02
2023-01-28T17:32:26.015Z,48.79
2023-01-28T17:50:26.636Z,45.32
2023-01-28T18:02:26.921Z,48.63
2023-01-28T18:04:26.987Z,48.30
2023-01-28T18:05:27.038Z,48.54
2023-01-28T18:14:27.503Z,47.06
2023-01-28T18:19:27.773Z,48.54
2023-01-28T18:25:28.091Z,42.86
2023-01-28T21:45:35.340Z,40.74
2023-01-28T21:47:35.317Z,40.59
2023-01-28T21:48:35.316Z,41.15
2023-01-28T21:49:35.385Z,40.34
2023-01-28T21:50:35.383Z,41.56
2023-01-28T21:51:35.413Z,39.14
2023-01-28T21:52:35.438Z,42.72
2023-01-28T21:53:35.431Z,42.74
2023-01-28T22:01:35.685Z,42.91
2023-01-28T22:02:35.616Z,42.92
2023-01-28T22:03:35.601Z,41.47
2023-01-28T22:12:36.045Z,40.65
2023-01-28T22:13:36.044Z,40.25
2023-01-28T22:14:36.083Z,43.84
2023-01-28T22:15:36.069Z,42.45
2023-01-28T22:16:36.203Z,39.88
2023-01-28T22:17:36.130Z,42.23
2023-01-28T22:18:36.192Z,40.57
2023-01-28T22:19:36.198Z,42.81
2023-01-28T22:20:36.200Z,42.09
2023-01-28T22:21:36.198Z,42.74
2023-01-28T22:22:36.230Z,40.44
2023-01-28T22:23:36.292Z,41.89
2023-01-28T22:24:36.369Z,41.97
2023-01-28T22:25:36.320Z,39.04
2023-01-28T22:26:36.315Z,41.27
2023-01-28T22:27:36.365Z,39.79
2023-01-28T22:28:36.400Z,40.56
2023-01-28T22:29:36.423Z,41.82
2023-01-28T22:30:36.461Z,40.40
2023-01-28T22:31:36.455Z,42.00
2023-01-28T22:32:36.490Z,39.08
2023-01-28T22:33:36.538Z,40.21
2023-01-28T22:34:36.583Z,39.32
